sensor_id;sensor_type;location;lat;lon;timestamp;pressure;altitude;pressure_sealevel;temperature;humidity
7168;BME280;3625;51.762;14.320;2023-04-29T00:01:39;100115.81;;;12.04;100.00
7168;BME280;3625;51.762;14.320;2023-04-29T00:04:08;100115.81;;;12.04;100.00
7168;BME280;3625;51.762;14.320;2023-04-29T00:06:37;100107.06;;;12.02;100.00
7168;BME280;3625;51.762;14.320;2023-04-29T00:09:06;100101.81;;;12.00;100.00
7168;BME280;3625;51.762;14.320;2023-04-29T00:11:34;100099.97;;;12.02;100.00
7168;BME280;3625;51.762;14.320;2023-04-29T00:14:03;100103.56;;;12.01;100.00
7168;BME280;3625;51.762;14.320;2023-04-29T00:16:32;100101.91;;;11.97;100.00
7168;BME280;3625;51.762;14.320;2023-04-29T00:19:02;100100.22;;;11.95;100.00
7168;BME280;3625;51.762;14.320;2023-04-29T00:21:31;100107.38;;;11.93;100.00
7168;BME280;3625;51.762;14.320;2023-04-29T00:24:00;100102.09;;;11.93;100.00
7168;BME280;3625;51.762;14.320;2023-04-29T00:26:28;100095.09;;;11.90;100.00
7168;BME280;3625;51.762;14.320;2023-04-29T00:28:58;100093.34;;;11.89;100.00
7168;BME280;3625;51.762;14.320;2023-04-29T00:31:27;100098.69;;;11.88;100.00
7168;BME280;3625;51.762;14.320;2023-04-29T00:33:55;100088.97;;;11.88;100.00
7168;BME280;3625;51.762;14.320;2023-04-29T00:36:26;100089.69;;;11.93;100.00
7168;BME280;3625;51.762;14.320;2023-04-29T00:38:55;100088.66;;;11.97;100.00
7168;BME280;3625;51.762;14.320;2023-04-29T00:41:25;100085.00;;;12.01;100.00
7168;BME280;3625;51.762;14.320;2023-04-29T00:43:54;100085.00;;;12.01;100.00
7168;BME280;3625;51.762;14.320;2023-04-29T00:46:23;100082.22;;;12.04;100.00
7168;BME280;3625;51.762;14.320;2023-04-29T00:48:51;100083.88;;;12.08;100.00
7168;BME280;3625;51.762;14.320;2023-04-29T00:51:20;100057.72;;;11.98;100.00
7168;BME280;3625;51.762;14.320;2023-04-29T00:53:50;100084.69;;;12.11;100.00
7168;BME280;3625;51.762;14.320;2023-04-29T00:56:20;100074.13;;;12.09;100.00
7168;BME280;3625;51.762;14.320;2023-04-29T00:58:49;100083.88;;;12.08;100.00
7168;BME280;3625;51.762;14.320;2023-04-29T01:01:19;100079.53;;;12.06;100.00
7168;BME280;3625;51.762;14.320;2023-04-29T01:03:48;100079.56;;;12.04;100.00
7168;BME280;3625;51.762;14.320;2023-04-29T01:06:25;100081.41;;;12.02;100.00
7168;BME280;3625;51.762;14.320;2023-04-29T01:09:18;100062.31;;;11.93;100.00
7168;BME280;3625;51.762;14.320;2023-04-29T01:12:00;100065.63;;;11.99;100.00
7168;BME280;3625;51.762;14.320;2023-04-29T01:14:33;100077.03;;;12.01;100.00
7168;BME280;3625;51.762;14.320;2023-04-29T01:17:09;100071.78;;;12.00;100.00
7168;BME280;3625;51.762;14.320;2023-04-29T01:19:44;100061.44;;;11.92;100.00
7168;BME280;3625;51.762;14.320;2023-04-29T01:22:15;100074.44;;;12.00;100.00
7168;BME280;3625;51.762;14.320;2023-04-29T01:24:47;100075.19;;;12.03;100.00
7168;BME280;3625;51.762;14.320;2023-04-29T01:27:23;100075.19;;;12.03;100.00
7168;BME280;3625;51.762;14.320;2023-04-29T01:30:07;100075.19;;;12.03;100.00
7168;BME280;3625;51.762;14.320;2023-04-29T01:32:45;100076.19;;;12.01;100.00
7168;BME280;3625;51.762;14.320;2023-04-29T01:35:31;100074.50;;;11.98;100.00
7168;BME280;3625;51.762;14.320;2023-04-29T01:38:10;100071.88;;;11.97;100.00
7168;BME280;3625;51.762;14.320;2023-04-29T01:40:51;100071.94;;;11.95;100.00
7168;BME280;3625;51.762;14.320;2023-04-29T01:43:29;100065.72;;;11.96;100.00
7168;BME280;3625;51.762;14.320;2023-04-29T01:46:09;100071.06;;;11.95;100.00
7168;BME280;3625;51.762;14.320;2023-04-29T01:48:38;100077.28;;;11.94;100.00
7168;BME280;3625;51.762;14.320;2023-04-29T01:51:07;100068.53;;;11.92;100.00
7168;BME280;3625;51.762;14.320;2023-04-29T01:53:36;100072.97;;;11.91;100.00
7168;BME280;3625;51.762;14.320;2023-04-29T01:56:08;100071.22;;;11.90;100.00
7168;BME280;3625;51.762;14.320;2023-04-29T01:58:58;100072.09;;;11.91;100.00
7168;BME280;3625;51.762;14.320;2023-04-29T02:01:51;100069.41;;;11.92;100.00
7168;BME280;3625;51.762;14.320;2023-04-29T02:04:20;100059.59;;;11.94;100.00
7168;BME280;3625;51.762;14.320;2023-04-29T02:06:50;100066.63;;;11.95;100.00
7168;BME280;3625;51.762;14.320;2023-04-29T02:09:20;100064.81;;;11.97;100.00
7168;BME280;3625;51.762;14.320;2023-04-29T02:11:55;100066.53;;;11.98;100.00
7168;BME280;3625;51.762;14.320;2023-04-29T02:14:23;100062.09;;;11.99;100.00
7168;BME280;3625;51.762;14.320;2023-04-29T02:16:52;100067.31;;;12.02;100.00
7168;BME280;3625;51.762;14.320;2023-04-29T02:19:21;100065.50;;;12.02;100.00
7168;BME280;3625;51.762;14.320;2023-04-29T02:21:53;99991.06;;;11.57;100.00
7168;BME280;3625;51.762;14.320;2023-04-29T02:24:25;100061.06;;;12.03;100.00
7168;BME280;3625;51.762;14.320;2023-04-29T02:26:55;100068.16;;;12.02;100.00
7168;BME280;3625;51.762;14.320;2023-04-29T02:29:25;100074.41;;;12.01;100.00
7168;BME280;3625;51.762;14.320;2023-04-29T02:31:56;100071.78;;;12.00;100.00
7168;BME280;3625;51.762;14.320;2023-04-29T02:34:25;100062.97;;;11.99;100.00
7168;BME280;3625;51.762;14.320;2023-04-29T02:36:54;100069.22;;;11.97;100.00
7168;BME280;3625;51.762;14.320;2023-04-29T02:39:23;100070.31;;;11.91;100.00
7168;BME280;3625;51.762;14.320;2023-04-29T02:41:56;100081.00;;;11.88;100.00
7168;BME280;3625;51.762;14.320;2023-04-29T02:44:25;100076.53;;;11.90;100.00
7168;BME280;3625;51.762;14.320;2023-04-29T02:46:54;100079.88;;;11.95;100.00
7168;BME280;3625;51.762;14.320;2023-04-29T02:49:24;100086.78;;;12.01;100.00
7168;BME280;3625;51.762;14.320;2023-04-29T02:51:53;100081.34;;;12.04;100.00
7168;BME280;3625;51.762;14.320;2023-04-29T02:54:22;100075.09;;;12.06;100.00
7168;BME280;3625;51.762;14.320;2023-04-29T02:56:51;100076.72;;;12.11;100.00
7168;BME280;3625;51.762;14.320;2023-04-29T02:59:21;100079.25;;;12.14;100.00
7168;BME280;3625;51.762;14.320;2023-04-29T03:01:50;100081.81;;;12.17;100.00
7168;BME280;3625;51.762;14.320;2023-04-29T03:04:22;100088.03;;;12.16;100.00
7168;BME280;3625;51.762;14.320;2023-04-29T03:06:53;100081.91;;;12.14;100.00
7168;BME280;3625;51.762;14.320;2023-04-29T03:09:22;100106.69;;;12.13;100.00
7168;BME280;3625;51.762;14.320;2023-04-29T03:11:51;100092.72;;;12.07;100.00
7168;BME280;3625;51.762;14.320;2023-04-29T03:14:21;100085.00;;;12.01;100.00
7168;BME280;3625;51.762;14.320;2023-04-29T03:16:53;100088.81;;;11.93;100.00
7168;BME280;3625;51.762;14.320;2023-04-29T03:19:24;100082.78;;;11.88;100.00
7168;BME280;3625;51.762;14.320;2023-04-29T03:21:53;100076.03;;;11.79;100.00
7168;BME280;3625;51.762;14.320;2023-04-29T03:24:21;100074.50;;;11.70;100.00
7168;BME280;3625;51.762;14.320;2023-04-29T03:26:50;100071.09;;;11.67;100.00
7168;BME280;3625;51.762;14.320;2023-04-29T03:29:21;100067.63;;;11.65;100.00
7168;BME280;3625;51.762;14.320;2023-04-29T03:31:50;100065.94;;;11.62;100.00
7168;BME280;3625;51.762;14.320;2023-04-29T03:34:19;100070.41;;;11.60;100.00
7168;BME280;3625;51.762;14.320;2023-04-29T03:36:57;100074.16;;;11.55;100.00
7168;BME280;3625;51.762;14.320;2023-04-29T03:39:27;100076.00;;;11.51;100.00
7168;BME280;3625;51.762;14.320;2023-04-29T03:41:58;100075.09;;;11.52;100.00
7168;BME280;3625;51.762;14.320;2023-04-29T03:44:29;99984.81;;;11.06;100.00
7168;BME280;3625;51.762;14.320;2023-04-29T03:47:14;100077.41;;;11.63;100.00
7168;BME280;3625;51.762;14.320;2023-04-29T03:49:45;100069.25;;;11.69;100.00
7168;BME280;3625;51.762;14.320;2023-04-29T03:52:14;100076.19;;;11.75;100.00
7168;BME280;3625;51.762;14.320;2023-04-29T03:54:46;100078.72;;;11.78;100.00
7168;BME280;3625;51.762;14.320;2023-04-29T03:57:15;100079.44;;;11.83;100.00
7168;BME280;3625;51.762;14.320;2023-04-29T03:59:45;100082.91;;;11.85;100.00
7168;BME280;3625;51.762;14.320;2023-04-29T04:02:19;100078.44;;;11.85;100.00
7168;BME280;3625;51.762;14.320;2023-04-29T04:04:48;100080.16;;;11.88;100.00
7168;BME280;3625;51.762;14.320;2023-04-29T04:07:18;100082.75;;;11.89;100.00
7168;BME280;3625;51.762;14.320;2023-04-29T04:10:05;100086.19;;;11.93;100.00
7168;BME280;3625;51.762;14.320;2023-04-29T04:12:35;100083.44;;;11.94;100.00
7168;BME280;3625;51.762;14.320;2023-04-29T04:15:06;100090.47;;;11.95;100.00
7168;BME280;3625;51.762;14.320;2023-04-29T04:17:35;100091.34;;;11.96;100.00
7168;BME280;3625;51.762;14.320;2023-04-29T04:20:07;100087.84;;;11.95;100.00
7168;BME280;3625;51.762;14.320;2023-04-29T04:22:38;100090.44;;;11.97;100.00
7168;BME280;3625;51.762;14.320;2023-04-29T04:25:23;100091.31;;;11.97;100.00
7168;BME280;3625;51.762;14.320;2023-04-29T04:27:56;100091.25;;;11.99;100.00
7168;BME280;3625;51.762;14.320;2023-04-29T04:30:48;100095.53;;;12.03;100.00
7168;BME280;3625;51.762;14.320;2023-04-29T04:33:17;100099.78;;;12.08;100.00
7168;BME280;3625;51.762;14.320;2023-04-29T04:35:46;100097.72;;;12.17;100.00
7168;BME280;3625;51.762;14.320;2023-04-29T04:38:15;100103.63;;;12.25;100.00
7168;BME280;3625;51.762;14.320;2023-04-29T04:40:44;100098.06;;;12.32;100.00
7168;BME280;3625;51.762;14.320;2023-04-29T04:43:27;100088.13;;;12.37;100.00
7168;BME280;3625;51.762;14.320;2023-04-29T04:45:57;100089.72;;;12.43;100.00
7168;BME280;3625;51.762;14.320;2023-04-29T04:48:26;100093.84;;;12.52;100.00
7168;BME280;3625;51.762;14.320;2023-04-29T04:50:57;100089.25;;;12.55;100.00
7168;BME280;3625;51.762;14.320;2023-04-29T04:53:26;100095.34;;;12.59;100.00
7168;BME280;3625;51.762;14.320;2023-04-29T04:56:00;100092.63;;;12.60;100.00
7168;BME280;3625;51.762;14.320;2023-04-29T04:58:31;100095.25;;;12.62;100.00
7168;BME280;3625;51.762;14.320;2023-04-29T05:01:01;100105.53;;;12.71;100.00
7168;BME280;3625;51.762;14.320;2023-04-29T05:03:31;100099.75;;;12.83;100.00
7168;BME280;3625;51.762;14.320;2023-04-29T05:06:01;100105.53;;;12.94;100.00
7168;BME280;3625;51.762;14.320;2023-04-29T05:08:30;100106.72;;;13.09;100.00
7168;BME280;3625;51.762;14.320;2023-04-29T05:11:01;100106.69;;;13.34;100.00
7168;BME280;3625;51.762;14.320;2023-04-29T05:13:31;100101.19;;;13.60;100.00
7168;BME280;3625;51.762;14.320;2023-04-29T05:16:04;100107.56;;;13.78;100.00
7168;BME280;3625;51.762;14.320;2023-04-29T05:18:38;100107.56;;;13.78;100.00
7168;BME280;3625;51.762;14.320;2023-04-29T05:21:07;100111.78;;;13.62;100.00
7168;BME280;3625;51.762;14.320;2023-04-29T05:23:37;100110.81;;;13.41;100.00
7168;BME280;3625;51.762;14.320;2023-04-29T05:26:06;100111.38;;;13.27;100.00
7168;BME280;3625;51.762;14.320;2023-04-29T05:28:35;100113.34;;;13.22;100.00
7168;BME280;3625;51.762;14.320;2023-04-29T05:31:10;100110.44;;;13.28;100.00
7168;BME280;3625;51.762;14.320;2023-04-29T05:33:38;100116.31;;;13.36;100.00
7168;BME280;3625;51.762;14.320;2023-04-29T05:36:09;100108.81;;;13.47;100.00
7168;BME280;3625;51.762;14.320;2023-04-29T05:38:39;100112.63;;;13.62;100.00
7168;BME280;3625;51.762;14.320;2023-04-29T05:41:20;100115.59;;;13.76;100.00
7168;BME280;3625;51.762;14.320;2023-04-29T05:44:11;100111.56;;;13.88;100.00
7168;BME280;3625;51.762;14.320;2023-04-29T05:46:41;100118.31;;;13.96;100.00
7168;BME280;3625;51.762;14.320;2023-04-29T05:49:11;100122.25;;;14.08;100.00
7168;BME280;3625;51.762;14.320;2023-04-29T05:51:39;100130.63;;;14.19;100.00
7168;BME280;3625;51.762;14.320;2023-04-29T05:54:08;100126.88;;;14.25;100.00
7168;BME280;3625;51.762;14.320;2023-04-29T05:56:37;100130.72;;;14.38;100.00
7168;BME280;3625;51.762;14.320;2023-04-29T05:59:06;100122.91;;;14.55;100.00
7168;BME280;3625;51.762;14.320;2023-04-29T06:01:35;100134.94;;;14.64;100.00
7168;BME280;3625;51.762;14.320;2023-04-29T06:04:07;100129.28;;;14.71;100.00
7168;BME280;3625;51.762;14.320;2023-04-29T06:06:55;100132.34;;;14.83;100.00
7168;BME280;3625;51.762;14.320;2023-04-29T06:09:47;100131.75;;;14.76;100.00
7168;BME280;3625;51.762;14.320;2023-04-29T06:12:16;100134.00;;;14.85;100.00
7168;BME280;3625;51.762;14.320;2023-04-29T06:14:46;100130.16;;;15.11;100.00
7168;BME280;3625;51.762;14.320;2023-04-29T06:17:15;100127.34;;;15.33;100.00
7168;BME280;3625;51.762;14.320;2023-04-29T06:19:45;100128.34;;;15.49;100.00
7168;BME280;3625;51.762;14.320;2023-04-29T06:22:14;100138.94;;;15.51;100.00
7168;BME280;3625;51.762;14.320;2023-04-29T06:24:49;100136.28;;;15.32;100.00
7168;BME280;3625;51.762;14.320;2023-04-29T06:27:31;100138.09;;;15.13;100.00
7168;BME280;3625;51.762;14.320;2023-04-29T06:30:00;100134.75;;;15.07;100.00
7168;BME280;3625;51.762;14.320;2023-04-29T06:32:29;100133.19;;;15.03;100.00
7168;BME280;3625;51.762;14.320;2023-04-29T06:34:59;100144.19;;;14.96;100.00
7168;BME280;3625;51.762;14.320;2023-04-29T06:37:52;100146.53;;;14.83;100.00
7168;BME280;3625;51.762;14.320;2023-04-29T06:40:42;100140.38;;;14.81;100.00
7168;BME280;3625;51.762;14.320;2023-04-29T06:43:31;100144.09;;;14.97;100.00
7168;BME280;3625;51.762;14.320;2023-04-29T06:46:15;100145.56;;;15.23;100.00
7168;BME280;3625;51.762;14.320;2023-04-29T06:49:02;100150.09;;;15.40;100.00
7168;BME280;3625;51.762;14.320;2023-04-29T06:51:33;100147.38;;;15.41;100.00
7168;BME280;3625;51.762;14.320;2023-04-29T06:54:03;100152.25;;;15.32;100.00
7168;BME280;3625;51.762;14.320;2023-04-29T06:56:32;100154.84;;;15.15;100.00
7168;BME280;3625;51.762;14.320;2023-04-29T06:59:00;100148.72;;;14.94;100.00
7168;BME280;3625;51.762;14.320;2023-04-29T07:01:30;100149.91;;;14.87;100.00
7168;BME280;3625;51.762;14.320;2023-04-29T07:03:59;100151.81;;;15.03;100.00
7168;BME280;3625;51.762;14.320;2023-04-29T07:06:28;100153.13;;;15.51;100.00
7168;BME280;3625;51.762;14.320;2023-04-29T07:08:58;100159.69;;;16.17;100.00
7168;BME280;3625;51.762;14.320;2023-04-29T07:11:27;100148.72;;;16.58;100.00
7168;BME280;3625;51.762;14.320;2023-04-29T07:13:56;100156.28;;;16.84;100.00
7168;BME280;3625;51.762;14.320;2023-04-29T07:16:29;100165.59;;;17.10;100.00
7168;BME280;3625;51.762;14.320;2023-04-29T07:18:57;100170.50;;;17.18;100.00
7168;BME280;3625;51.762;14.320;2023-04-29T07:21:27;100168.53;;;17.21;100.00
7168;BME280;3625;51.762;14.320;2023-04-29T07:23:58;100171.53;;;17.15;100.00
7168;BME280;3625;51.762;14.320;2023-04-29T07:26:28;100169.63;;;17.02;100.00
7168;BME280;3625;51.762;14.320;2023-04-29T07:28:58;100175.94;;;16.83;100.00
7168;BME280;3625;51.762;14.320;2023-04-29T07:31:28;100177.25;;;16.57;100.00
7168;BME280;3625;51.762;14.320;2023-04-29T07:33:57;100171.72;;;16.43;100.00
7168;BME280;3625;51.762;14.320;2023-04-29T07:36:25;100177.06;;;16.43;100.00
7168;BME280;3625;51.762;14.320;2023-04-29T07:38:55;100173.31;;;16.30;100.00
7168;BME280;3625;51.762;14.320;2023-04-29T07:41:27;100176.69;;;16.34;100.00
7168;BME280;3625;51.762;14.320;2023-04-29T07:43:56;100177.31;;;16.39;100.00
7168;BME280;3625;51.762;14.320;2023-04-29T07:46:25;100180.06;;;16.37;100.00
7168;BME280;3625;51.762;14.320;2023-04-29T07:48:55;100179.72;;;16.43;100.00
7168;BME280;3625;51.762;14.320;2023-04-29T07:51:25;100181.41;;;16.46;100.00
7168;BME280;3625;51.762;14.320;2023-04-29T07:53:55;100193.00;;;16.28;100.00
7168;BME280;3625;51.762;14.320;2023-04-29T07:56:24;100187.88;;;16.06;100.00
7168;BME280;3625;51.762;14.320;2023-04-29T07:58:54;100196.13;;;15.82;100.00
7168;BME280;3625;51.762;14.320;2023-04-29T08:01:23;100196.69;;;15.70;100.00
7168;BME280;3625;51.762;14.320;2023-04-29T08:03:52;100193.75;;;15.58;100.00
7168;BME280;3625;51.762;14.320;2023-04-29T08:06:23;100195.53;;;15.57;100.00
7168;BME280;3625;51.762;14.320;2023-04-29T08:08:52;100206.47;;;15.51;100.00
7168;BME280;3625;51.762;14.320;2023-04-29T08:11:22;100205.03;;;15.44;100.00
7168;BME280;3625;51.762;14.320;2023-04-29T08:13:53;100204.78;;;15.48;100.00
7168;BME280;3625;51.762;14.320;2023-04-29T08:16:25;100199.69;;;16.00;100.00
7168;BME280;3625;51.762;14.320;2023-04-29T08:18:54;100201.00;;;16.81;100.00
7168;BME280;3625;51.762;14.320;2023-04-29T08:21:23;100208.88;;;17.17;100.00
7168;BME280;3625;51.762;14.320;2023-04-29T08:23:52;100208.78;;;17.35;100.00
7168;BME280;3625;51.762;14.320;2023-04-29T08:26:22;100215.16;;;17.49;100.00
7168;BME280;3625;51.762;14.320;2023-04-29T08:28:50;100221.81;;;17.57;100.00
7168;BME280;3625;51.762;14.320;2023-04-29T08:31:21;100232.03;;;17.33;100.00
7168;BME280;3625;51.762;14.320;2023-04-29T08:33:50;100230.59;;;17.11;100.00
7168;BME280;3625;51.762;14.320;2023-04-29T08:36:19;100233.19;;;16.78;100.00
7168;BME280;3625;51.762;14.320;2023-04-29T08:38:48;100231.53;;;16.58;100.00
7168;BME280;3625;51.762;14.320;2023-04-29T08:41:18;100235.66;;;16.46;100.00
7168;BME280;3625;51.762;14.320;2023-04-29T08:43:47;100236.78;;;16.42;100.00
7168;BME280;3625;51.762;14.320;2023-04-29T08:46:17;100236.16;;;16.18;100.00
7168;BME280;3625;51.762;14.320;2023-04-29T08:48:48;100238.13;;;16.15;100.00
7168;BME280;3625;51.762;14.320;2023-04-29T08:51:18;100238.72;;;16.03;100.00
7168;BME280;3625;51.762;14.320;2023-04-29T08:53:46;100244.97;;;16.02;100.00
7168;BME280;3625;51.762;14.320;2023-04-29T08:56:16;100241.97;;;15.91;100.00
7168;BME280;3625;51.762;14.320;2023-04-29T08:58:47;100243.06;;;15.87;100.00
7168;BME280;3625;51.762;14.320;2023-04-29T09:01:21;100245.72;;;15.87;100.00
7168;BME280;3625;51.762;14.320;2023-04-29T09:03:55;100251.19;;;15.83;100.00
7168;BME280;3625;51.762;14.320;2023-04-29T09:06:30;100248.25;;;15.90;100.00
7168;BME280;3625;51.762;14.320;2023-04-29T09:09:00;100245.66;;;16.07;100.00
7168;BME280;3625;51.762;14.320;2023-04-29T09:11:30;100252.91;;;16.22;100.00
7168;BME280;3625;51.762;14.320;2023-04-29T09:14:01;100249.78;;;16.31;100.00
7168;BME280;3625;51.762;14.320;2023-04-29T09:16:30;100252.53;;;16.30;100.00
7168;BME280;3625;51.762;14.320;2023-04-29T09:19:01;100262.16;;;16.15;100.00
7168;BME280;3625;51.762;14.320;2023-04-29T09:21:30;100263.84;;;15.99;100.00
7168;BME280;3625;51.762;14.320;2023-04-29T09:24:00;100270.84;;;15.82;100.00
7168;BME280;3625;51.762;14.320;2023-04-29T09:26:39;100268.41;;;15.58;100.00
7168;BME280;3625;51.762;14.320;2023-04-29T09:29:10;100263.25;;;15.53;100.00
7168;BME280;3625;51.762;14.320;2023-04-29T09:31:40;100265.25;;;15.68;100.00
7168;BME280;3625;51.762;14.320;2023-04-29T09:34:11;100271.16;;;16.12;100.00
7168;BME280;3625;51.762;14.320;2023-04-29T09:36:45;100257.94;;;16.64;100.00
7168;BME280;3625;51.762;14.320;2023-04-29T09:39:16;100278.00;;;17.24;100.00
7168;BME280;3625;51.762;14.320;2023-04-29T09:41:59;100281.53;;;17.58;100.00
7168;BME280;3625;51.762;14.320;2023-04-29T09:44:30;100294.47;;;18.16;98.00
7168;BME280;3625;51.762;14.320;2023-04-29T09:47:02;100298.84;;;18.48;92.25
7168;BME280;3625;51.762;14.320;2023-04-29T09:49:33;100311.75;;;18.41;89.24
7168;BME280;3625;51.762;14.320;2023-04-29T09:52:05;100306.28;;;18.12;90.03
7168;BME280;3625;51.762;14.320;2023-04-29T09:54:35;100303.31;;;18.00;93.72
7168;BME280;3625;51.762;14.320;2023-04-29T09:57:05;100306.25;;;17.96;94.62
7168;BME280;3625;51.762;14.320;2023-04-29T09:59:42;100312.72;;;18.07;93.39
7168;BME280;3625;51.762;14.320;2023-04-29T10:02:15;100284.41;;;18.19;92.88
7168;BME280;3625;51.762;14.320;2023-04-29T10:04:52;100317.34;;;18.37;88.46
7168;BME280;3625;51.762;14.320;2023-04-29T10:07:25;100311.19;;;17.88;88.12
7168;BME280;3625;51.762;14.320;2023-04-29T10:09:55;100324.31;;;17.25;90.98
7168;BME280;3625;51.762;14.320;2023-04-29T10:12:24;100319.69;;;16.94;94.28
7168;BME280;3625;51.762;14.320;2023-04-29T10:15:02;100263.88;;;16.52;96.17
7168;BME280;3625;51.762;14.320;2023-04-29T10:17:35;100325.31;;;16.88;97.56
7168;BME280;3625;51.762;14.320;2023-04-29T10:20:08;100334.06;;;17.09;97.41
7168;BME280;3625;51.762;14.320;2023-04-29T10:22:44;100334.91;;;16.75;93.44
7168;BME280;3625;51.762;14.320;2023-04-29T10:25:15;100350.97;;;16.00;96.52
7168;BME280;3625;51.762;14.320;2023-04-29T10:27:46;100347.41;;;15.60;99.99
7168;BME280;3625;51.762;14.320;2023-04-29T10:30:16;100344.16;;;15.54;100.00
7168;BME280;3625;51.762;14.320;2023-04-29T10:32:46;100342.13;;;15.79;100.00
7168;BME280;3625;51.762;14.320;2023-04-29T10:35:21;100337.59;;;16.18;100.00
7168;BME280;3625;51.762;14.320;2023-04-29T10:37:53;100339.50;;;16.52;98.24
7168;BME280;3625;51.762;14.320;2023-04-29T10:40:29;100345.28;;;16.98;96.73
7168;BME280;3625;51.762;14.320;2023-04-29T10:43:00;100352.00;;;16.71;94.41
7168;BME280;3625;51.762;14.320;2023-04-29T10:45:31;100353.59;;;16.37;97.41
7168;BME280;3625;51.762;14.320;2023-04-29T10:48:14;100362.28;;;16.23;99.18
7168;BME280;3625;51.762;14.320;2023-04-29T10:51:02;100362.19;;;15.88;100.00
7168;BME280;3625;51.762;14.320;2023-04-29T10:53:32;100364.72;;;15.50;100.00
7168;BME280;3625;51.762;14.320;2023-04-29T10:56:07;100368.84;;;15.17;100.00
7168;BME280;3625;51.762;14.320;2023-04-29T10:58:41;100344.53;;;14.82;100.00
7168;BME280;3625;51.762;14.320;2023-04-29T11:01:11;100368.78;;;14.96;100.00
7168;BME280;3625;51.762;14.320;2023-04-29T11:03:48;100373.91;;;14.81;100.00
7168;BME280;3625;51.762;14.320;2023-04-29T11:06:39;100382.19;;;14.73;100.00
7168;BME280;3625;51.762;14.320;2023-04-29T11:09:14;100386.88;;;14.45;100.00
7168;BME280;3625;51.762;14.320;2023-04-29T11:11:57;100373.56;;;14.21;100.00
7168;BME280;3625;51.762;14.320;2023-04-29T11:14:30;100375.41;;;14.44;100.00
7168;BME280;3625;51.762;14.320;2023-04-29T11:17:01;100387.53;;;14.73;100.00
7168;BME280;3625;51.762;14.320;2023-04-29T11:19:32;100388.03;;;15.04;100.00
7168;BME280;3625;51.762;14.320;2023-04-29T11:22:26;100369.38;;;15.25;100.00
7168;BME280;3625;51.762;14.320;2023-04-29T11:24:58;100395.97;;;15.26;100.00
7168;BME280;3625;51.762;14.320;2023-04-29T11:27:30;100399.97;;;15.36;100.00
7168;BME280;3625;51.762;14.320;2023-04-29T11:30:00;100405.44;;;14.91;100.00
7168;BME280;3625;51.762;14.320;2023-04-29T11:32:33;100409.88;;;14.91;100.00
7168;BME280;3625;51.762;14.320;2023-04-29T11:35:09;100417.19;;;14.64;100.00
7168;BME280;3625;51.762;14.320;2023-04-29T11:37:41;100413.19;;;14.29;100.00
7168;BME280;3625;51.762;14.320;2023-04-29T11:40:12;100426.91;;;14.18;100.00
7168;BME280;3625;51.762;14.320;2023-04-29T11:42:42;100416.28;;;13.93;100.00
7168;BME280;3625;51.762;14.320;2023-04-29T11:45:12;100423.47;;;13.67;100.00
7168;BME280;3625;51.762;14.320;2023-04-29T11:47:43;100419.06;;;13.41;100.00
7168;BME280;3625;51.762;14.320;2023-04-29T11:50:15;100422.59;;;13.15;100.00
7168;BME280;3625;51.762;14.320;2023-04-29T11:52:49;100423.56;;;13.12;100.00
7168;BME280;3625;51.762;14.320;2023-04-29T11:55:18;100435.97;;;13.13;100.00
7168;BME280;3625;51.762;14.320;2023-04-29T11:57:49;100436.19;;;13.06;100.00
7168;BME280;3625;51.762;14.320;2023-04-29T12:00:19;100434.44;;;13.05;100.00
7168;BME280;3625;51.762;14.320;2023-04-29T12:02:48;100434.31;;;13.08;100.00
7168;BME280;3625;51.762;14.320;2023-04-29T12:05:17;100445.25;;;12.99;100.00
7168;BME280;3625;51.762;14.320;2023-04-29T12:07:49;100446.28;;;12.95;100.00
7168;BME280;3625;51.762;14.320;2023-04-29T12:10:18;100445.75;;;12.83;100.00
7168;BME280;3625;51.762;14.320;2023-04-29T12:12:48;100453.91;;;12.77;100.00
7168;BME280;3625;51.762;14.320;2023-04-29T12:15:17;100459.59;;;12.65;100.00
7168;BME280;3625;51.762;14.320;2023-04-29T12:17:49;100458.88;;;12.60;100.00
7168;BME280;3625;51.762;14.320;2023-04-29T12:20:19;100460.63;;;12.61;100.00
7168;BME280;3625;51.762;14.320;2023-04-29T12:22:49;100454.72;;;12.52;100.00
7168;BME280;3625;51.762;14.320;2023-04-29T12:25:18;100464.47;;;12.51;100.00
7168;BME280;3625;51.762;14.320;2023-04-29T12:27:48;100466.28;;;12.49;100.00
7168;BME280;3625;51.762;14.320;2023-04-29T12:30:18;100481.00;;;12.59;100.00
7168;BME280;3625;51.762;14.320;2023-04-29T12:32:47;100472.50;;;12.77;100.00
7168;BME280;3625;51.762;14.320;2023-04-29T12:35:17;100483.94;;;12.79;100.00
7168;BME280;3625;51.762;14.320;2023-04-29T12:37:50;100481.50;;;12.72;100.00
7168;BME280;3625;51.762;14.320;2023-04-29T12:40:19;100481.56;;;12.70;100.00
7168;BME280;3625;51.762;14.320;2023-04-29T12:42:49;100483.34;;;12.70;100.00
7168;BME280;3625;51.762;14.320;2023-04-29T12:45:29;100486.25;;;12.62;100.00
7168;BME280;3625;51.762;14.320;2023-04-29T12:48:02;100493.41;;;12.59;100.00
7168;BME280;3625;51.762;14.320;2023-04-29T12:50:41;100496.38;;;12.48;100.00
7168;BME280;3625;51.762;14.320;2023-04-29T12:53:11;100495.50;;;12.47;100.00
7168;BME280;3625;51.762;14.320;2023-04-29T12:55:40;100496.69;;;12.37;100.00
7168;BME280;3625;51.762;14.320;2023-04-29T12:58:09;100497.66;;;12.35;100.00
7168;BME280;3625;51.762;14.320;2023-04-29T13:00:38;100498.66;;;12.31;100.00
7168;BME280;3625;51.762;14.320;2023-04-29T13:03:06;100497.63;;;12.36;100.00
7168;BME280;3625;51.762;14.320;2023-04-29T13:05:36;100498.81;;;12.56;100.00
7168;BME280;3625;51.762;14.320;2023-04-29T13:08:05;100505.34;;;12.73;100.00
7168;BME280;3625;51.762;14.320;2023-04-29T13:10:36;100501.22;;;12.63;100.00
7168;BME280;3625;51.762;14.320;2023-04-29T13:13:04;100500.22;;;12.67;100.00
7168;BME280;3625;51.762;14.320;2023-04-29T13:15:36;100503.72;;;12.69;100.00